Time;durP1;ratioP1;P1;durP2;ratioP2;P2;SDS_P1;SDS_P2;PMS_P1;PMS_P2;Temp;Humidity;BMP_temperature;BMP_pressure;BME280_temperature;BME280_humidity;BME280_pressure;Samples;Min_cycle;Max_cycle;Signal;HPM_P1;HPM_P2
2023/12/11 00:00:29;;;;;;;21.90;20.23;;;;;;;;;;5012786;28;20448;-40
2023/12/11 00:02:57;;;;;;;23.90;21.07;;;;;;;;;;5004400;28;20516;-39
2023/12/11 00:05:24;;;;;;;23.30;20.60;;;;;;;;;;5012042;28;20483;-40
2023/12/11 00:07:52;;;;;;;22.30;20.23;;;;;;;;;;5001879;28;20545;-38
2023/12/11 00:10:21;;;;;;;25.07;22.23;;;;;;;;;;4993170;28;20481;-39
2023/12/11 00:12:49;;;;;;;24.77;21.40;;;;;;;;;;4992590;28;20438;-40
2023/12/11 00:15:16;;;;;;;22.83;20.73;;;;;;;;;;4992239;28;21188;-38
2023/12/11 00:17:44;;;;;;;21.53;19.60;;;;;;;;;;5000035;28;20512;-39
2023/12/11 00:20:12;;;;;;;22.60;20.33;;;;;;;;;;5011953;28;20859;-40
2023/12/11 00:22:40;;;;;;;23.30;21.07;;;;;;;;;;5012103;28;20437;-38
2023/12/11 00:25:10;;;;;;;22.53;20.73;;;;;;;;;;5011860;28;20468;-38
2023/12/11 00:27:39;;;;;;;25.87;20.10;;;;;;;;;;5003798;28;20834;-41
2023/12/11 00:30:09;;;;;;;22.90;21.00;;;;;;;;;;4992589;28;20442;-39
2023/12/11 00:32:36;;;;;;;22.67;20.87;;;;;;;;;;4992171;28;20524;-40
2023/12/11 00:35:04;;;;;;;21.30;19.60;;;;;;;;;;4991866;28;20430;-38
2023/12/11 00:37:32;;;;;;;24.13;21.63;;;;;;;;;;4999089;28;20535;-39
2023/12/11 00:39:59;;;;;;;23.27;21.37;;;;;;;;;;5012131;28;20814;-39
2023/12/11 00:42:27;;;;;;;20.70;18.90;;;;;;;;;;5012000;28;20921;-39
2023/12/11 00:44:56;;;;;;;21.13;19.53;;;;;;;;;;5011504;28;20485;-40
2023/12/11 00:47:24;;;;;;;21.00;19.20;;;;;;;;;;5005586;28;20457;-41
2023/12/11 00:49:52;;;;;;;22.60;20.50;;;;;;;;;;4992229;28;20886;-39
2023/12/11 00:52:19;;;;;;;22.70;19.20;;;;;;;;;;4992212;28;20473;-39
2023/12/11 00:54:47;;;;;;;20.33;18.57;;;;;;;;;;4991691;28;20548;-39
2023/12/11 00:57:15;;;;;;;21.60;19.70;;;;;;;;;;4996212;28;20489;-39
2023/12/11 00:59:43;;;;;;;21.67;19.70;;;;;;;;;;5011410;28;20472;-41
2023/12/11 01:02:13;;;;;;;23.13;20.87;;;;;;;;;;5011650;28;20441;-38
2023/12/11 01:04:40;;;;;;;22.90;20.67;;;;;;;;;;5011378;28;20441;-40
2023/12/11 01:07:08;;;;;;;20.50;19.07;;;;;;;;;;5007325;28;20849;-38
2023/12/11 01:09:36;;;;;;;23.20;20.73;;;;;;;;;;4992132;28;20438;-38
2023/12/11 01:12:04;;;;;;;23.30;21.23;;;;;;;;;;4991893;28;20492;-39
2023/12/11 01:14:31;;;;;;;22.10;20.30;;;;;;;;;;4992002;28;20780;-38
2023/12/11 01:16:59;;;;;;;27.63;22.00;;;;;;;;;;4993713;28;20512;-38
2023/12/11 01:19:48;;;;;;;23.83;21.70;;;;;;;;;;5011556;28;20441;-38
2023/12/11 01:22:15;;;;;;;23.00;21.40;;;;;;;;;;5005297;28;20495;-38
2023/12/11 01:24:43;;;;;;;23.60;21.50;;;;;;;;;;5013402;28;20483;-38
2023/12/11 01:27:11;;;;;;;24.23;22.33;;;;;;;;;;5011665;28;20468;-40
2023/12/11 01:29:39;;;;;;;23.23;21.10;;;;;;;;;;4995696;28;20434;-37
2023/12/11 01:32:06;;;;;;;23.00;21.10;;;;;;;;;;4996978;28;20849;-39
2023/12/11 01:34:34;;;;;;;22.47;20.77;;;;;;;;;;4995830;28;20474;-39
2023/12/11 01:37:03;;;;;;;22.37;20.47;;;;;;;;;;4998439;28;20465;-37
2023/12/11 01:39:31;;;;;;;22.57;20.70;;;;;;;;;;5015507;28;20441;-37
2023/12/11 01:41:59;;;;;;;23.80;21.50;;;;;;;;;;5015584;28;20433;-37
2023/12/11 01:44:26;;;;;;;23.13;20.77;;;;;;;;;;5015574;28;20437;-37
2023/12/11 01:46:54;;;;;;;23.60;20.90;;;;;;;;;;5013528;28;20473;-38
2023/12/11 01:49:22;;;;;;;25.00;22.40;;;;;;;;;;4996212;28;20433;-38
2023/12/11 01:51:49;;;;;;;23.80;21.73;;;;;;;;;;4995914;28;20448;-38
2023/12/11 01:54:19;;;;;;;29.33;21.83;;;;;;;;;;4995408;28;20433;-38
2023/12/11 01:56:47;;;;;;;25.67;22.00;;;;;;;;;;4991789;28;20465;-38
2023/12/11 01:59:14;;;;;;;25.80;23.23;;;;;;;;;;5011121;28;20487;-38
2023/12/11 02:01:43;;;;;;;26.93;24.30;;;;;;;;;;5010802;28;20475;-40
2023/12/11 02:04:11;;;;;;;33.13;24.70;;;;;;;;;;5010742;28;20886;-39
2023/12/11 02:06:39;;;;;;;28.57;25.10;;;;;;;;;;5011018;28;20483;-39
2023/12/11 02:09:07;;;;;;;32.07;24.40;;;;;;;;;;5010729;28;20495;-42
2023/12/11 02:11:36;;;;;;;27.57;24.33;;;;;;;;;;5011057;28;20442;-38
2023/12/11 02:14:04;;;;;;;33.33;26.80;;;;;;;;;;5014017;28;20484;-39
2023/12/11 02:16:32;;;;;;;55.53;29.57;;;;;;;;;;5014281;28;20449;-38
2023/12/11 02:18:59;;;;;;;29.67;26.73;;;;;;;;;;4994831;28;20498;-41
2023/12/11 02:21:27;;;;;;;43.87;29.17;;;;;;;;;;4994915;28;20460;-39
2023/12/11 02:24:00;;;;;;;35.40;27.00;;;;;;;;;;4994730;28;20445;-39
2023/12/11 02:26:29;;;;;;;25.03;22.77;;;;;;;;;;4994657;28;20478;-38
2023/12/11 02:28:56;;;;;;;25.73;23.10;;;;;;;;;;5012608;28;20480;-40
2023/12/11 02:31:24;;;;;;;25.10;22.90;;;;;;;;;;5014154;28;20678;-39
2023/12/11 02:33:51;;;;;;;25.77;23.27;;;;;;;;;;5014070;28;20433;-40
2023/12/11 02:36:19;;;;;;;26.40;23.90;;;;;;;;;;5013980;28;20511;-41
2023/12/11 02:38:47;;;;;;;24.90;22.80;;;;;;;;;;4996425;28;20493;-39
2023/12/11 02:41:14;;;;;;;25.33;22.63;;;;;;;;;;4994391;28;20464;-39
2023/12/11 02:43:43;;;;;;;25.20;22.80;;;;;;;;;;4994017;28;20934;-38
2023/12/11 02:46:11;;;;;;;27.80;24.67;;;;;;;;;;4994025;28;20473;-39
2023/12/11 02:48:39;;;;;;;28.57;25.63;;;;;;;;;;5009870;28;20484;-38
2023/12/11 02:51:07;;;;;;;27.07;23.57;;;;;;;;;;5013850;28;20529;-41
2023/12/11 02:53:34;;;;;;;24.50;21.87;;;;;;;;;;5013844;28;20901;-41
2023/12/11 02:56:02;;;;;;;25.37;23.00;;;;;;;;;;5013167;28;20460;-39
2023/12/11 02:58:29;;;;;;;25.10;22.80;;;;;;;;;;4998315;28;20485;-39
2023/12/11 03:00:59;;;;;;;23.27;21.67;;;;;;;;;;4993656;28;20434;-41
2023/12/11 03:03:27;;;;;;;23.00;21.50;;;;;;;;;;4993912;28;20442;-38
2023/12/11 03:05:55;;;;;;;24.23;21.93;;;;;;;;;;4993544;28;20466;-38
2023/12/11 03:08:22;;;;;;;24.50;22.17;;;;;;;;;;5006639;28;20469;-39
2023/12/11 03:10:50;;;;;;;24.20;21.90;;;;;;;;;;5013099;28;20488;-41
2023/12/11 03:13:18;;;;;;;23.83;21.53;;;;;;;;;;5013254;28;20521;-41
2023/12/11 03:15:45;;;;;;;70.50;28.63;;;;;;;;;;5013084;28;20461;-38
2023/12/11 03:18:14;;;;;;;26.83;21.90;;;;;;;;;;5000244;28;20461;-38
2023/12/11 03:20:42;;;;;;;185.83;35.40;;;;;;;;;;4986377;28;20443;-38
2023/12/11 03:23:08;;;;;;;66.10;25.73;;;;;;;;;;4985701;28;20466;-39
2023/12/11 03:25:36;;;;;;;115.53;33.13;;;;;;;;;;4993104;28;20536;-39
2023/12/11 03:28:04;;;;;;;48.23;23.73;;;;;;;;;;5004310;28;20836;-40
2023/12/11 03:30:32;;;;;;;72.83;28.13;;;;;;;;;;5013121;28;20437;-41
2023/12/11 03:32:59;;;;;;;35.80;23.70;;;;;;;;;;5012676;28;20437;-39
2023/12/11 03:35:28;;;;;;;55.63;27.23;;;;;;;;;;5012658;28;20568;-38
2023/12/11 03:37:56;;;;;;;25.50;23.00;;;;;;;;;;5002124;28;20472;-38
2023/12/11 03:40:23;;;;;;;27.40;23.97;;;;;;;;;;4993415;28;20465;-39
2023/12/11 03:42:51;;;;;;;23.67;21.87;;;;;;;;;;4993270;28;20516;-39
2023/12/11 03:45:19;;;;;;;22.10;20.30;;;;;;;;;;4992993;28;20457;-39
2023/12/11 03:47:46;;;;;;;22.03;19.90;;;;;;;;;;5001342;28;20464;-39
2023/12/11 03:50:14;;;;;;;20.77;19.30;;;;;;;;;;5012627;28;20459;-38
2023/12/11 03:52:43;;;;;;;20.20;19.00;;;;;;;;;;5012472;28;20476;-39
2023/12/11 03:55:10;;;;;;;24.33;21.73;;;;;;;;;;5012309;28;20516;-40
2023/12/11 03:57:38;;;;;;;19.90;18.80;;;;;;;;;;5004399;28;20525;-40
2023/12/11 04:00:06;;;;;;;20.10;18.70;;;;;;;;;;4992865;28;20433;-38
2023/12/11 04:02:34;;;;;;;22.43;20.43;;;;;;;;;;4992791;28;20529;-41
2023/12/11 04:05:02;;;;;;;24.20;22.23;;;;;;;;;;4992290;28;20441;-38
2023/12/11 04:07:29;;;;;;;25.43;23.03;;;;;;;;;;4999261;28;20791;-41
2023/12/11 04:09:59;;;;;;;24.23;22.00;;;;;;;;;;5012096;28;20443;-38
2023/12/11 04:12:26;;;;;;;23.77;21.87;;;;;;;;;;5012217;28;20444;-39
2023/12/11 04:14:54;;;;;;;25.53;23.00;;;;;;;;;;5012004;28;20433;-40
2023/12/11 04:17:22;;;;;;;27.63;25.33;;;;;;;;;;5006182;28;20553;-40
2023/12/11 04:19:50;;;;;;;24.87;22.67;;;;;;;;;;4991934;28;21016;-39
2023/12/11 04:22:17;;;;;;;25.80;23.50;;;;;;;;;;4985500;28;20438;-39
2023/12/11 04:24:45;;;;;;;25.70;23.50;;;;;;;;;;4992489;28;20491;-41
2023/12/11 04:27:14;;;;;;;26.70;24.30;;;;;;;;;;4988656;28;20817;-39
2023/12/11 04:29:42;;;;;;;25.57;23.10;;;;;;;;;;5012158;28;20790;-41
2023/12/11 04:32:09;;;;;;;25.23;23.20;;;;;;;;;;5011821;28;20611;-38
2023/12/11 04:34:37;;;;;;;25.93;23.60;;;;;;;;;;5011568;28;20925;-39
2023/12/11 04:37:05;;;;;;;26.37;24.20;;;;;;;;;;5007855;28;20468;-39
2023/12/11 04:39:32;;;;;;;23.70;21.60;;;;;;;;;;4992464;28;20441;-39
2023/12/11 04:42:00;;;;;;;24.47;22.30;;;;;;;;;;4992250;28;20489;-42
2023/12/11 04:44:29;;;;;;;22.93;21.07;;;;;;;;;;4992043;28;20444;-41
2023/12/11 04:46:56;;;;;;;22.67;21.03;;;;;;;;;;4993321;28;20482;-42
2023/12/11 04:49:24;;;;;;;24.00;21.97;;;;;;;;;;5012143;28;20434;-40
2023/12/11 04:51:52;;;;;;;35.90;28.63;;;;;;;;;;5011708;28;20829;-39
2023/12/11 04:54:20;;;;;;;27.13;24.47;;;;;;;;;;5011656;28;20844;-40
2023/12/11 04:56:47;;;;;;;23.67;21.87;;;;;;;;;;5010071;28;20468;-40
2023/12/11 04:59:15;;;;;;;26.00;23.77;;;;;;;;;;4984191;28;20444;-42
2023/12/11 05:01:44;;;;;;;25.87;23.47;;;;;;;;;;4992024;28;20448;-39
2023/12/11 05:04:12;;;;;;;26.07;23.63;;;;;;;;;;4991786;28;20950;-41
2023/12/11 05:06:39;;;;;;;26.97;24.60;;;;;;;;;;4992007;28;20492;-41
2023/12/11 05:09:07;;;;;;;26.70;24.37;;;;;;;;;;4991718;28;20888;-40
2023/12/11 05:11:35;;;;;;;30.13;26.60;;;;;;;;;;4991876;28;20508;-41
2023/12/11 05:14:03;;;;;;;28.33;25.97;;;;;;;;;;4991228;28;20870;-41
2023/12/11 05:16:30;;;;;;;30.47;27.47;;;;;;;;;;4991894;28;20454;-42
2023/12/11 05:18:59;;;;;;;32.40;28.50;;;;;;;;;;5009771;28;20461;-43
2023/12/11 05:21:27;;;;;;;33.17;29.97;;;;;;;;;;5011446;28;20820;-39
2023/12/11 05:23:56;;;;;;;33.07;29.37;;;;;;;;;;5011174;28;20441;-39
2023/12/11 05:26:23;;;;;;;34.83;31.03;;;;;;;;;;5011225;28;20460;-38
2023/12/11 05:28:51;;;;;;;32.70;29.43;;;;;;;;;;4993002;28;20473;-38
2023/12/11 05:31:19;;;;;;;31.40;27.93;;;;;;;;;;4991736;28;20430;-39
2023/12/11 05:33:46;;;;;;;32.50;29.43;;;;;;;;;;4991825;28;20833;-38
2023/12/11 05:36:16;;;;;;;35.00;31.20;;;;;;;;;;4991393;28;20465;-39
2023/12/11 05:38:43;;;;;;;37.70;32.07;;;;;;;;;;5007929;28;20893;-41
2023/12/11 05:41:11;;;;;;;44.43;32.33;;;;;;;;;;5010963;28;20433;-38
2023/12/11 05:43:39;;;;;;;40.73;32.20;;;;;;;;;;5011354;28;20468;-38
2023/12/11 05:46:07;;;;;;;36.23;30.03;;;;;;;;;;5010965;28;20525;-39
2023/12/11 05:48:35;;;;;;;37.30;31.70;;;;;;;;;;4997931;28;21005;-39
2023/12/11 05:51:03;;;;;;;42.03;30.90;;;;;;;;;;4995163;28;20888;-38
2023/12/11 05:53:31;;;;;;;41.30;31.73;;;;;;;;;;4995232;28;20525;-40
2023/12/11 05:55:59;;;;;;;34.40;30.67;;;;;;;;;;4994703;28;21061;-39
2023/12/11 05:58:27;;;;;;;39.67;30.53;;;;;;;;;;5008486;28;20976;-41
2023/12/11 06:00:54;;;;;;;33.33;29.53;;;;;;;;;;5014652;28;20528;-39
2023/12/11 06:03:22;;;;;;;262.50;52.23;;;;;;;;;;5014630;28;20441;-39
2023/12/11 06:05:55;;;;;;;140.43;38.93;;;;;;;;;;5014632;28;20460;-39
2023/12/11 06:08:22;;;;;;;88.33;33.20;;;;;;;;;;5000494;28;20558;-39
2023/12/11 06:10:52;;;;;;;41.03;30.83;;;;;;;;;;4994889;28;20988;-44
2023/12/11 06:13:19;;;;;;;42.03;33.57;;;;;;;;;;4994953;28;20430;-39
2023/12/11 06:15:47;;;;;;;46.63;31.83;;;;;;;;;;4994668;28;20473;-39
2023/12/11 06:18:15;;;;;;;40.70;33.10;;;;;;;;;;5006961;28;20456;-38
2023/12/11 06:20:42;;;;;;;37.57;31.80;;;;;;;;;;5014246;28;20805;-41
2023/12/11 06:23:10;;;;;;;63.40;39.07;;;;;;;;;;5014247;28;20433;-38
2023/12/11 06:25:37;;;;;;;51.07;35.67;;;;;;;;;;5014042;28;20460;-39
2023/12/11 06:28:06;;;;;;;41.77;34.47;;;;;;;;;;5002187;28;20527;-41
2023/12/11 06:30:34;;;;;;;58.33;37.37;;;;;;;;;;4994502;28;20521;-41
2023/12/11 06:33:02;;;;;;;54.83;35.90;;;;;;;;;;4994299;28;20430;-39
2023/12/11 06:35:30;;;;;;;61.43;37.23;;;;;;;;;;4994482;28;20453;-39
2023/12/11 06:37:57;;;;;;;64.80;37.33;;;;;;;;;;5004539;28;20939;-40
2023/12/11 06:40:25;;;;;;;63.93;36.00;;;;;;;;;;5014100;28;20545;-39
2023/12/11 06:42:53;;;;;;;73.40;38.53;;;;;;;;;;5014021;28;20444;-39
2023/12/11 06:45:22;;;;;;;47.83;34.27;;;;;;;;;;5013667;28;20479;-40
2023/12/11 06:47:49;;;;;;;57.07;34.97;;;;;;;;;;5003622;28;20501;-39
2023/12/11 06:50:19;;;;;;;44.10;34.73;;;;;;;;;;4994152;28;20457;-41
2023/12/11 06:52:47;;;;;;;54.63;36.43;;;;;;;;;;4994307;28;20453;-39
2023/12/11 06:55:15;;;;;;;46.20;33.73;;;;;;;;;;4993701;28;20533;-39
2023/12/11 06:57:42;;;;;;;43.37;34.60;;;;;;;;;;5001837;28;20467;-41
2023/12/11 07:00:10;;;;;;;59.10;36.13;;;;;;;;;;5013169;28;20793;-39
2023/12/11 07:02:40;;;;;;;59.87;35.10;;;;;;;;;;5013596;28;20438;-39
2023/12/11 07:05:07;;;;;;;46.47;33.63;;;;;;;;;;5013271;28;20433;-41
2023/12/11 07:07:35;;;;;;;48.73;32.70;;;;;;;;;;5005773;28;20850;-41
2023/12/11 07:10:05;;;;;;;49.20;32.90;;;;;;;;;;4993653;28;20512;-41
2023/12/11 07:12:33;;;;;;;127.67;45.60;;;;;;;;;;4993587;28;20444;-41
2023/12/11 07:15:01;;;;;;;49.00;34.20;;;;;;;;;;4993321;28;20530;-39
2023/12/11 07:17:28;;;;;;;84.73;48.10;;;;;;;;;;4999685;28;21066;-40
2023/12/11 07:19:59;;;;;;;67.90;39.57;;;;;;;;;;5013064;28;20433;-39
2023/12/11 07:22:27;;;;;;;66.57;40.60;;;;;;;;;;5013186;28;20805;-39
2023/12/11 07:24:54;;;;;;;56.40;36.90;;;;;;;;;;5012878;28;20954;-40
2023/12/11 07:27:22;;;;;;;48.50;34.13;;;;;;;;;;5006603;28;20476;-42
2023/12/11 07:29:50;;;;;;;62.77;36.20;;;;;;;;;;4993428;28;20485;-39
2023/12/11 07:32:17;;;;;;;45.00;34.73;;;;;;;;;;4993229;28;20942;-41
2023/12/11 07:34:45;;;;;;;108.57;45.53;;;;;;;;;;4993243;28;20444;-38
2023/12/11 07:37:14;;;;;;;49.60;34.17;;;;;;;;;;4997135;28;20472;-41
2023/12/11 07:39:42;;;;;;;45.87;33.50;;;;;;;;;;5012724;28;20440;-45
2023/12/11 07:42:09;;;;;;;49.53;33.50;;;;;;;;;;5012856;28;20436;-41
2023/12/11 07:44:37;;;;;;;69.73;36.17;;;;;;;;;;5012677;28;20516;-39
2023/12/11 07:47:05;;;;;;;72.87;37.60;;;;;;;;;;5008871;28;20458;-38
2023/12/11 07:49:32;;;;;;;43.80;33.47;;;;;;;;;;4993149;28;20513;-38
2023/12/11 07:52:02;;;;;;;69.63;40.90;;;;;;;;;;4992924;28;20445;-39
2023/12/11 07:54:31;;;;;;;67.10;42.13;;;;;;;;;;4992662;28;20442;-38
2023/12/11 07:56:59;;;;;;;45.50;34.80;;;;;;;;;;4994710;28;20992;-39
2023/12/11 07:59:26;;;;;;;36.47;30.50;;;;;;;;;;5012543;28;20433;-41
2023/12/11 08:01:54;;;;;;;35.63;31.77;;;;;;;;;;5012503;28;20437;-39
2023/12/11 08:04:22;;;;;;;35.53;30.37;;;;;;;;;;5012088;28;20433;-39
2023/12/11 08:06:50;;;;;;;39.93;28.70;;;;;;;;;;5010488;28;20460;-41
2023/12/11 08:09:18;;;;;;;56.27;37.50;;;;;;;;;;4992513;28;20477;-39
2023/12/11 08:11:47;;;;;;;90.57;40.87;;;;;;;;;;4992145;28;20481;-44
2023/12/11 08:14:16;;;;;;;59.60;36.13;;;;;;;;;;4992349;28;20438;-39
2023/12/11 08:16:43;;;;;;;115.10;44.87;;;;;;;;;;4992585;28;20806;-39
2023/12/11 08:19:12;;;;;;;73.83;38.47;;;;;;;;;;5012185;28;20925;-39
2023/12/11 08:21:40;;;;;;;45.03;30.93;;;;;;;;;;5012299;28;20436;-39
2023/12/11 08:24:07;;;;;;;34.77;29.67;;;;;;;;;;5011912;28;20850;-38
2023/12/11 08:26:35;;;;;;;39.07;28.70;;;;;;;;;;5012152;28;20457;-40
2023/12/11 08:29:04;;;;;;;69.97;34.03;;;;;;;;;;4992322;28;20465;-38
2023/12/11 08:31:32;;;;;;;94.17;35.93;;;;;;;;;;4992286;28;20434;-39
2023/12/11 08:34:00;;;;;;;46.43;31.07;;;;;;;;;;4991978;28;20500;-38
2023/12/11 08:36:27;;;;;;;79.23;42.40;;;;;;;;;;4992364;28;20912;-38
2023/12/11 08:38:55;;;;;;;33.70;30.47;;;;;;;;;;5010098;28;20491;-40
2023/12/11 08:41:23;;;;;;;32.87;29.27;;;;;;;;;;5011732;28;20513;-39
2023/12/11 08:43:50;;;;;;;40.20;31.40;;;;;;;;;;5011806;28;20483;-39
2023/12/11 08:46:19;;;;;;;35.00;29.30;;;;;;;;;;5011196;28;20564;-38
2023/12/11 08:48:47;;;;;;;60.20;33.30;;;;;;;;;;4993737;28;20468;-39
2023/12/11 08:51:17;;;;;;;30.03;27.40;;;;;;;;;;4992187;28;20438;-42
2023/12/11 08:53:45;;;;;;;36.00;30.90;;;;;;;;;;4992100;28;20528;-38
2023/12/11 08:56:13;;;;;;;31.70;28.27;;;;;;;;;;4991485;28;20462;-40
2023/12/11 08:58:41;;;;;;;32.23;28.93;;;;;;;;;;5008006;28;20923;-39
2023/12/11 09:01:09;;;;;;;36.43;31.00;;;;;;;;;;5011407;28;20429;-41
2023/12/11 09:03:38;;;;;;;57.97;32.83;;;;;;;;;;5011710;28;20479;-39
2023/12/11 09:06:06;;;;;;;161.27;39.83;;;;;;;;;;5011226;28;20499;-39
2023/12/11 09:08:33;;;;;;;33.60;25.20;;;;;;;;;;4995834;28;20837;-38
2023/12/11 09:11:01;;;;;;;64.73;29.87;;;;;;;;;;4991729;28;20470;-38
2023/12/11 09:13:29;;;;;;;120.07;35.70;;;;;;;;;;4983776;28;20462;-39
2023/12/11 09:15:56;;;;;;;168.47;36.57;;;;;;;;;;4991795;28;20461;-38
2023/12/11 09:18:24;;;;;;;98.80;32.87;;;;;;;;;;5005125;28;20465;-39
2023/12/11 09:20:54;;;;;;;37.33;27.37;;;;;;;;;;5011427;28;20439;-38
2023/12/11 09:23:21;;;;;;;170.37;41.63;;;;;;;;;;5015406;28;20550;-38
2023/12/11 09:25:49;;;;;;;79.60;33.40;;;;;;;;;;5015057;28;20487;-42
2023/12/11 09:28:16;;;;;;;46.37;30.60;;;;;;;;;;5001688;28;21768;-42
2023/12/11 09:30:44;;;;;;;35.30;28.30;;;;;;;;;;4995710;28;20469;-40
2023/12/11 09:33:12;;;;;;;36.53;27.40;;;;;;;;;;4995728;28;20814;-41
2023/12/11 09:35:40;;;;;;;41.37;28.20;;;;;;;;;;4995312;28;20457;-39
2023/12/11 09:38:10;;;;;;;33.77;26.60;;;;;;;;;;5006734;28;20467;-39
2023/12/11 09:40:37;;;;;;;31.83;28.20;;;;;;;;;;5014891;28;20490;-40
2023/12/11 09:43:05;;;;;;;60.97;30.83;;;;;;;;;;5015128;28;20512;-39
2023/12/11 09:45:33;;;;;;;45.33;30.90;;;;;;;;;;5014562;28;21004;-40
2023/12/11 09:48:01;;;;;;;35.43;28.73;;;;;;;;;;5003676;28;20548;-39
2023/12/11 09:50:40;;;;;;;38.63;29.90;;;;;;;;;;4988734;28;20473;-45
2023/12/11 09:53:09;;;;;;;31.93;28.73;;;;;;;;;;4994954;28;20513;-42
2023/12/11 09:55:37;;;;;;;44.80;31.40;;;;;;;;;;4994825;28;20465;-39
2023/12/11 09:58:05;;;;;;;50.83;32.97;;;;;;;;;;5006256;28;20552;-41
2023/12/11 10:00:33;;;;;;;181.37;51.83;;;;;;;;;;5014754;28;20437;-39
2023/12/11 10:03:05;;;;;;;253.57;56.27;;;;;;;;;;5014636;28;20433;-39
2023/12/11 10:05:35;;;;;;;40.80;32.10;;;;;;;;;;5006371;28;20535;-40
2023/12/11 10:08:03;;;;;;;35.17;31.27;;;;;;;;;;5003118;28;20866;-40
2023/12/11 10:10:33;;;;;;;38.43;30.90;;;;;;;;;;4994503;28;20478;-39
2023/12/11 10:13:01;;;;;;;49.43;34.93;;;;;;;;;;4995085;28;20449;-39
2023/12/11 10:15:30;;;;;;;34.97;31.10;;;;;;;;;;4994651;28;20449;-40
2023/12/11 10:18:02;;;;;;;40.73;30.27;;;;;;;;;;5004914;28;20896;-39
2023/12/11 10:20:30;;;;;;;77.17;37.73;;;;;;;;;;5014376;28;20434;-42
2023/12/11 10:22:58;;;;;;;32.80;29.33;;;;;;;;;;5014545;28;20444;-39
2023/12/11 10:25:33;;;;;;;47.50;33.63;;;;;;;;;;5013841;28;20538;-40
2023/12/11 10:28:07;;;;;;;84.30;34.07;;;;;;;;;;5002968;28;20520;-40
2023/12/11 10:30:49;;;;;;;221.17;47.30;;;;;;;;;;4986848;28;20477;-42
2023/12/11 10:33:18;;;;;;;105.93;32.77;;;;;;;;;;4993748;28;20465;-42
2023/12/11 10:35:46;;;;;;;88.63;33.40;;;;;;;;;;4994371;28;20912;-39
2023/12/11 10:38:20;;;;;;;154.60;36.80;;;;;;;;;;5006482;28;20464;-39
2023/12/11 10:40:50;;;;;;;120.90;32.83;;;;;;;;;;5014126;28;20433;-39
2023/12/11 10:43:17;;;;;;;114.57;35.10;;;;;;;;;;5013791;28;20433;-39
2023/12/11 10:45:46;;;;;;;94.43;33.90;;;;;;;;;;5013811;28;20460;-39
2023/12/11 10:48:19;;;;;;;95.27;33.47;;;;;;;;;;5000318;28;20465;-40
2023/12/11 10:50:47;;;;;;;193.90;43.43;;;;;;;;;;4994282;28;20553;-45
2023/12/11 10:53:15;;;;;;;109.03;35.03;;;;;;;;;;4994119;28;20466;-39
2023/12/11 10:55:43;;;;;;;160.00;38.30;;;;;;;;;;4993739;28;20825;-39
2023/12/11 10:58:13;;;;;;;108.40;30.57;;;;;;;;;;5005970;28;20461;-39
2023/12/11 11:00:41;;;;;;;162.40;35.87;;;;;;;;;;5013690;28;20442;-39
2023/12/11 11:03:10;;;;;;;139.77;35.30;;;;;;;;;;5014020;28;20439;-39
2023/12/11 11:05:38;;;;;;;125.87;32.70;;;;;;;;;;5005786;28;20457;-42
2023/12/11 11:08:12;;;;;;;151.50;33.97;;;;;;;;;;5001543;28;20557;-38
2023/12/11 11:10:41;;;;;;;163.33;35.10;;;;;;;;;;4986471;28;20480;-38
2023/12/11 11:13:09;;;;;;;114.33;33.23;;;;;;;;;;4993977;28;20969;-38
2023/12/11 11:15:39;;;;;;;114.50;35.17;;;;;;;;;;4993568;28;20458;-40
2023/12/11 11:18:09;;;;;;;190.23;41.37;;;;;;;;;;5004238;28;20991;-41
2023/12/11 11:20:38;;;;;;;85.57;30.40;;;;;;;;;;5005370;28;20434;-40
2023/12/11 11:23:26;;;;;;;115.13;34.33;;;;;;;;;;5013307;28;20806;-41
2023/12/11 11:25:54;;;;;;;142.60;38.37;;;;;;;;;;5012768;28;20468;-38
2023/12/11 11:28:35;;;;;;;126.03;36.97;;;;;;;;;;4998822;28;20489;-37
2023/12/11 11:31:05;;;;;;;222.00;48.00;;;;;;;;;;4993458;28;20477;-41
2023/12/11 11:33:47;;;;;;;81.93;33.53;;;;;;;;;;4987000;28;20438;-40
2023/12/11 11:36:17;;;;;;;98.90;37.47;;;;;;;;;;4993079;28;20517;-38
2023/12/11 11:38:57;;;;;;;80.87;32.47;;;;;;;;;;5009802;28;20893;-37
2023/12/11 11:41:26;;;;;;;56.07;32.50;;;;;;;;;;5012645;28;20512;-37
2023/12/11 11:44:00;;;;;;;138.73;43.20;;;;;;;;;;5012922;28;20444;-39
2023/12/11 11:46:48;;;;;;;125.93;34.47;;;;;;;;;;5012792;28;20487;-38
2023/12/11 11:49:28;;;;;;;76.60;30.90;;;;;;;;;;5012752;28;20445;-39
2023/12/11 11:51:56;;;;;;;144.23;41.80;;;;;;;;;;5012392;28;20472;-39
2023/12/11 11:54:24;;;;;;;80.40;34.40;;;;;;;;;;5012483;28;20433;-38
2023/12/11 11:56:52;;;;;;;54.03;31.57;;;;;;;;;;5010462;28;20469;-44
2023/12/11 11:59:20;;;;;;;53.70;32.10;;;;;;;;;;4992924;28;20438;-39
2023/12/11 12:01:53;;;;;;;32.93;27.50;;;;;;;;;;4992804;28;20518;-38
2023/12/11 12:04:27;;;;;;;36.93;28.20;;;;;;;;;;4992615;28;20453;-40
2023/12/11 12:06:57;;;;;;;48.87;31.20;;;;;;;;;;4994341;28;21007;-40
2023/12/11 12:09:24;;;;;;;32.20;28.77;;;;;;;;;;5012707;28;20478;-39
2023/12/11 12:11:52;;;;;;;54.97;31.50;;;;;;;;;;5012284;28;20465;-38
2023/12/11 12:14:21;;;;;;;69.00;31.97;;;;;;;;;;5012242;28;20433;-40
2023/12/11 12:16:49;;;;;;;57.40;33.40;;;;;;;;;;5010428;28;20896;-38
2023/12/11 12:19:29;;;;;;;46.73;29.10;;;;;;;;;;4992809;28;20434;-39
2023/12/11 12:21:58;;;;;;;65.27;32.37;;;;;;;;;;4992491;28;20932;-39
2023/12/11 12:24:26;;;;;;;30.90;27.60;;;;;;;;;;4992296;28;21008;-38
2023/12/11 12:26:55;;;;;;;40.93;30.20;;;;;;;;;;4993900;28;20465;-38
2023/12/11 12:29:23;;;;;;;34.17;29.00;;;;;;;;;;5011918;28;20472;-39
2023/12/11 12:31:52;;;;;;;32.97;27.90;;;;;;;;;;5012025;28;20473;-41
2023/12/11 12:34:21;;;;;;;41.10;28.87;;;;;;;;;;5011953;28;20433;-44
2023/12/11 12:36:49;;;;;;;36.37;26.63;;;;;;;;;;5010464;28;20541;-38
2023/12/11 12:39:19;;;;;;;33.67;27.30;;;;;;;;;;4992294;28;20520;-38
2023/12/11 12:41:48;;;;;;;34.60;27.60;;;;;;;;;;4992333;28;20465;-39
2023/12/11 12:44:19;;;;;;;44.93;29.70;;;;;;;;;;4992147;28;20512;-39
2023/12/11 12:46:47;;;;;;;31.47;27.70;;;;;;;;;;4992804;28;20875;-42
2023/12/11 12:49:15;;;;;;;30.53;27.27;;;;;;;;;;5012052;28;20437;-41
2023/12/11 12:51:45;;;;;;;34.07;27.80;;;;;;;;;;5004373;28;20968;-39
2023/12/11 12:54:14;;;;;;;30.33;26.07;;;;;;;;;;5011547;28;20499;-39
2023/12/11 12:56:44;;;;;;;30.63;27.60;;;;;;;;;;5002732;28;20469;-39
2023/12/11 12:59:12;;;;;;;34.13;26.83;;;;;;;;;;4992396;28;20942;-39
2023/12/11 13:01:41;;;;;;;28.50;25.60;;;;;;;;;;4992173;28;20430;-41
2023/12/11 13:04:09;;;;;;;40.77;31.23;;;;;;;;;;4991777;28;20442;-40
2023/12/11 13:06:37;;;;;;;38.13;27.80;;;;;;;;;;4991795;28;20493;-44
2023/12/11 13:09:08;;;;;;;49.40;26.90;;;;;;;;;;5011035;28;20549;-39
2023/12/11 13:11:38;;;;;;;31.33;28.20;;;;;;;;;;5011634;28;20841;-41
2023/12/11 13:14:06;;;;;;;38.87;28.03;;;;;;;;;;5011347;28;20540;-39
2023/12/11 13:16:34;;;;;;;29.23;26.37;;;;;;;;;;5011413;28;20844;-40
2023/12/11 13:19:02;;;;;;;26.20;23.90;;;;;;;;;;4992432;28;20977;-42
2023/12/11 13:21:30;;;;;;;25.87;23.43;;;;;;;;;;4991690;28;20434;-39
2023/12/11 13:23:58;;;;;;;25.60;23.20;;;;;;;;;;4992163;28;20878;-41
2023/12/11 13:26:29;;;;;;;24.37;22.20;;;;;;;;;;4991867;28;20549;-39
2023/12/11 13:28:57;;;;;;;24.90;22.63;;;;;;;;;;5009937;28;20464;-44
2023/12/11 13:31:25;;;;;;;25.40;23.03;;;;;;;;;;5011304;28;20525;-39
2023/12/11 13:33:53;;;;;;;25.80;23.53;;;;;;;;;;5011417;28;20429;-41
2023/12/11 13:36:20;;;;;;;27.63;24.47;;;;;;;;;;5011331;28;20807;-42
2023/12/11 13:38:48;;;;;;;26.83;24.03;;;;;;;;;;4993776;28;20462;-41
2023/12/11 13:41:16;;;;;;;26.77;24.47;;;;;;;;;;4991849;28;20444;-40
2023/12/11 13:43:45;;;;;;;26.27;24.40;;;;;;;;;;4983972;28;20426;-39
2023/12/11 13:46:13;;;;;;;27.40;25.00;;;;;;;;;;4991444;28;20489;-40
2023/12/11 13:48:40;;;;;;;26.10;24.33;;;;;;;;;;5007231;28;20468;-40
2023/12/11 13:51:08;;;;;;;25.57;23.63;;;;;;;;;;5011403;28;20437;-39
2023/12/11 13:53:37;;;;;;;26.53;24.37;;;;;;;;;;5011141;28;20476;-41
2023/12/11 13:56:05;;;;;;;26.47;24.40;;;;;;;;;;5010929;28;20552;-42
2023/12/11 13:58:33;;;;;;;26.00;24.20;;;;;;;;;;4995598;28;21012;-40
2023/12/11 14:01:02;;;;;;;27.20;25.30;;;;;;;;;;4991315;28;20438;-40
2023/12/11 14:03:31;;;;;;;29.17;26.80;;;;;;;;;;4991477;28;20448;-42
2023/12/11 14:05:58;;;;;;;26.70;24.80;;;;;;;;;;4991322;28;20545;-40
2023/12/11 14:08:26;;;;;;;27.47;25.50;;;;;;;;;;5006347;28;20460;-39
2023/12/11 14:10:54;;;;;;;28.67;26.50;;;;;;;;;;5014616;28;20444;-39
2023/12/11 14:13:22;;;;;;;26.73;25.13;;;;;;;;;;5014417;28;20471;-40
2023/12/11 14:15:49;;;;;;;26.87;25.27;;;;;;;;;;5014488;28;20484;-42
2023/12/11 14:18:18;;;;;;;25.80;24.40;;;;;;;;;;5000215;28;20465;-39
2023/12/11 14:20:46;;;;;;;28.73;27.20;;;;;;;;;;4994921;28;20473;-38
2023/12/11 14:23:14;;;;;;;28.47;26.80;;;;;;;;;;4994890;28;20442;-38